Time;durP1;ratioP1;P1;durP2;ratioP2;P2;SDS_P1;SDS_P2;PMS_P1;PMS_P2;Temp;Humidity;BMP_temperature;BMP_pressure;BME280_temperature;BME280_humidity;BME280_pressure;Samples;Min_cycle;Max_cycle;Signal;HPM_P1;HPM_P2
2022/02/03 00:00:38;;;;;;;64.10;21.42;;;;;;;2.50;100.00;100227.10;1704285;84;21075;-90
2022/02/03 00:08:28;;;;;;;55.10;18.75;;;;;;;2.47;100.00;100213.72;1639837;85;21051;-90
2022/02/03 00:11:23;;;;;;;68.22;22.37;;;;;;;2.45;100.00;100215.77;1636585;85;21586;-89
2022/02/03 00:16:43;;;;;;;73.95;22.45;;;;;;;2.42;100.00;100219.38;1639894;84;21018;-89
2022/02/03 00:22:06;;;;;;;92.67;22.80;;;;;;;2.39;100.00;100212.64;1681222;85;21151;-89
2022/02/03 00:27:11;;;;;;;84.25;23.35;;;;;;;2.30;100.00;100203.81;1661380;85;21123;-90
2022/02/03 00:32:14;;;;;;;124.15;24.98;;;;;;;2.33;100.00;100198.07;1658302;86;21113;-89
2022/02/03 00:34:46;;;;;;;228.77;28.90;;;;;;;2.33;100.00;100195.41;1657774;86;22187;-89
2022/02/03 00:37:17;;;;;;;224.42;31.17;;;;;;;2.28;100.00;100196.85;1657383;86;21058;-90
2022/02/03 00:50:44;;;;;;;212.82;31.90;;;;;;;2.14;100.00;100187.33;1600932;87;21123;-89
2022/02/03 00:53:12;;;;;;;178.90;29.57;;;;;;;2.08;100.00;100187.38;1584319;88;21134;-89
2022/02/03 00:55:37;;;;;;;166.77;31.33;;;;;;;2.03;100.00;100194.17;1584202;88;21150;-88
2022/02/03 00:58:05;;;;;;;189.93;31.25;;;;;;;2.01;100.00;100192.23;1587772;89;21059;-88
2022/02/03 01:00:36;;;;;;;171.10;30.60;;;;;;;1.98;100.00;100193.17;1587931;90;21659;-89
2022/02/03 01:03:10;;;;;;;202.78;31.00;;;;;;;1.97;100.00;100197.68;1607363;87;20982;-88
2022/02/03 01:05:37;;;;;;;230.37;32.10;;;;;;;1.96;100.00;100192.56;1603890;87;21280;-88
2022/02/03 01:08:15;;;;;;;207.87;32.35;;;;;;;1.93;100.00;100194.31;1602650;89;21085;-88
2022/02/03 01:10:40;;;;;;;198.97;31.97;;;;;;;1.89;100.00;100195.27;1602778;89;21134;-89
2022/02/03 01:13:11;;;;;;;175.38;30.43;;;;;;;1.89;100.00;100201.91;1602319;89;21327;-88
2022/02/03 01:37:38;;;;;;;181.82;34.13;;;;;;;1.90;100.00;100190.23;1687918;85;21088;-88
2022/02/03 01:52:49;;;;;;;190.85;38.70;;;;;;;1.91;100.00;100193.22;1660422;86;21143;-88
2022/02/03 01:55:21;;;;;;;191.80;38.02;;;;;;;1.94;100.00;100194.61;1604901;89;21122;-89
2022/02/03 01:58:27;;;;;;;181.67;38.10;;;;;;;1.95;100.00;100187.77;1605194;89;21106;-88
2022/02/03 02:01:01;;;;;;;233.63;39.45;;;;;;;1.94;100.00;100182.16;1584397;89;21879;-88
2022/02/03 02:03:48;;;;;;;211.18;39.58;;;;;;;1.96;100.00;100183.27;1573919;90;21120;-88
2022/02/03 02:06:54;;;;;;;210.85;38.13;;;;;;;1.95;100.00;100185.63;1572719;91;21182;-88
2022/02/03 02:09:54;;;;;;;197.47;39.10;;;;;;;1.98;100.00;100189.19;1572249;91;21151;-87
2022/02/03 02:12:46;;;;;;;210.15;36.48;;;;;;;1.97;100.00;100184.39;1572322;91;21042;-87
2022/02/03 02:37:39;;;;;;;171.13;41.35;;;;;;;1.78;100.00;100183.97;1579538;90;21048;-87
2022/02/03 02:42:40;;;;;;;142.90;41.70;;;;;;;1.78;100.00;100181.31;1560197;91;21131;-88
2022/02/03 02:45:10;;;;;;;160.35;41.95;;;;;;;1.78;100.00;100178.66;1532969;93;21308;-87
2022/02/03 02:48:17;;;;;;;205.25;46.30;;;;;;;1.86;100.00;100181.59;1551814;92;21587;-88
2022/02/03 02:50:58;;;;;;;175.80;43.87;;;;;;;1.91;100.00;100188.39;1559181;91;21153;-87
2022/02/03 02:59:13;;;;;;;209.05;44.63;;;;;;;1.89;100.00;100186.48;1456256;96;21177;-88
2022/02/03 03:28:51;;;;;;;;;;;;;;;1.83;100.00;100193.98;1411303;101;20296;-88
2022/02/03 03:34:24;;;;;;;165.03;40.67;;;;;;;1.78;100.00;100202.56;1406653;101;21646;-88
2022/02/03 03:36:43;;;;;;;177.22;39.67;;;;;;;1.81;100.00;100208.78;1400814;101;21152;-88
2022/02/03 03:39:13;;;;;;;182.45;37.50;;;;;;;1.85;100.00;100212.64;1400526;102;21602;-88
2022/02/03 03:41:43;;;;;;;175.05;37.63;;;;;;;1.84;100.00;100222.16;1401135;102;21176;-89
2022/02/03 03:44:14;;;;;;;166.15;36.10;;;;;;;1.84;100.00;100212.34;1400963;102;21183;-88
2022/02/03 03:46:40;;;;;;;158.07;32.53;;;;;;;1.86;100.00;100227.56;1416363;99;21283;-87
2022/02/03 03:49:11;;;;;;;158.85;33.42;;;;;;;1.86;100.00;100224.91;1426711;99;22169;-88
2022/02/03 03:51:55;;;;;;;147.15;31.10;;;;;;;1.87;100.00;100227.05;1452310;98;21165;-88
2022/02/03 03:54:38;;;;;;;;;;;;;;;1.88;100.00;100231.33;1533578;92;21062;-88
2022/02/03 04:37:36;;;;;;;105.85;31.85;;;;;;;2.14;100.00;100247.66;1614843;84;21010;-88
2022/02/03 04:56:24;;;;;;;102.72;30.20;;;;;;;2.14;100.00;100277.70;1607547;87;21558;-88
2022/02/03 05:05:36;;;;;;;101.40;30.52;;;;;;;2.10;100.00;100285.81;1656795;85;21105;-89
2022/02/03 05:08:41;;;;;;;106.25;30.37;;;;;;;2.11;100.00;100283.96;1656936;85;21261;-88
2022/02/03 05:11:42;;;;;;;104.67;31.07;;;;;;;2.13;100.00;100291.22;1656951;84;21121;-88
2022/02/03 05:21:00;;;;;;;93.85;27.42;;;;;;;2.14;100.00;100302.14;1585100;87;21120;-88
2022/02/03 05:24:15;;;;;;;85.65;26.05;;;;;;;2.15;100.00;100306.45;1584332;88;21136;-89
2022/02/03 05:47:09;;;;;;;85.25;26.90;;;;;;;2.19;100.00;100307.66;1446789;99;21116;-90
2022/02/03 05:55:18;;;;;;;81.57;26.10;;;;;;;2.32;100.00;100317.39;1480940;93;21133;-90
2022/02/03 06:08:37;;;;;;;80.65;25.45;;;;;;;2.46;100.00;100334.39;1634360;85;21074;-92
2022/02/03 06:27:37;;;;;;;78.25;24.77;;;;;;;2.89;100.00;100331.08;1723899;82;20989;-92
2022/02/03 06:29:56;;;;;;;72.70;23.67;;;;;;;2.93;100.00;100326.94;1735548;82;21079;-92
2022/02/03 06:32:24;;;;;;;72.58;22.50;;;;;;;2.95;100.00;100326.73;1739112;82;21380;-93
2022/02/03 06:34:50;;;;;;;75.40;23.60;;;;;;;2.95;100.00;100326.22;1739684;82;21008;-92
2022/02/03 06:37:15;;;;;;;69.90;22.98;;;;;;;2.99;100.00;100326.59;1739993;82;21071;-93
2022/02/03 06:39:41;;;;;;;69.62;23.10;;;;;;;3.01;100.00;100329.86;1739776;82;21634;-93
2022/02/03 06:42:08;;;;;;;68.40;22.42;;;;;;;3.04;100.00;100318.78;1729892;82;20980;-93
2022/02/03 06:44:41;;;;;;;62.23;22.30;;;;;;;3.06;100.00;100318.05;1706533;81;21048;-93
2022/02/03 06:47:17;;;;;;;76.30;23.47;;;;;;;3.09;100.00;100321.62;1681510;84;21009;-92
2022/02/03 06:49:49;;;;;;;;;;;;;;;3.15;100.00;100325.26;1684306;84;21015;-94
2022/02/03 06:54:55;;;;;;;66.62;22.65;;;;;;;3.24;100.00;100325.28;1738365;82;21546;-95
2022/02/03 06:57:11;;;;;;;63.98;21.12;;;;;;;3.27;100.00;100329.36;1718175;82;21078;-94
2022/02/03 06:59:43;;;;;;;65.55;21.73;;;;;;;3.30;100.00;100331.58;1717568;83;21097;-94
2022/02/03 07:02:02;;;;;;;58.75;21.35;;;;;;;3.35;100.00;100325.06;1705660;82;39069;-94
2022/02/03 07:04:37;;;;;;;56.30;20.32;;;;;;;3.44;100.00;100326.41;1716829;83;21066;-94
2022/02/03 07:06:56;;;;;;;55.88;18.67;;;;;;;3.48;100.00;100331.61;1715827;83;21023;-95
2022/02/03 07:09:23;;;;;;;56.73;18.70;;;;;;;3.54;100.00;100332.06;1716202;83;21094;-94
2022/02/03 07:11:49;;;;;;;53.08;18.07;;;;;;;3.56;100.00;100331.34;1716452;83;21154;-93
2022/02/03 07:14:16;;;;;;;53.35;18.50;;;;;;;3.60;100.00;100332.52;1716475;83;21046;-93
2022/02/03 07:16:48;;;;;;;52.13;18.62;;;;;;;3.63;100.00;100345.39;1711147;82;21621;-92
2022/02/03 07:21:47;;;;;;;45.12;16.20;;;;;;;3.74;100.00;100350.53;1659211;85;21534;-92
2022/02/03 07:24:12;;;;;;;48.95;16.70;;;;;;;3.79;100.00;100353.84;1658287;84;21031;-92
2022/02/03 07:26:38;;;;;;;46.55;16.75;;;;;;;3.79;100.00;100345.84;1633140;87;21059;-90
2022/02/03 07:29:04;;;;;;;45.45;16.45;;;;;;;3.85;100.00;100336.97;1633003;86;21982;-91
2022/02/03 07:31:33;;;;;;;48.87;16.62;;;;;;;3.91;100.00;100336.08;1632646;87;21570;-91
2022/02/03 07:34:04;;;;;;;44.67;15.93;;;;;;;3.99;100.00;100341.12;1632636;86;21097;-91
2022/02/03 07:36:26;;;;;;;44.03;15.38;;;;;;;4.06;100.00;100336.54;1649209;85;21011;-90
2022/02/03 07:38:52;;;;;;;42.98;14.87;;;;;;;4.10;100.00;100347.05;1659638;85;21010;-90
2022/02/03 07:41:18;;;;;;;39.45;13.55;;;;;;;4.03;100.00;100346.32;1659757;85;21152;-90
2022/02/03 07:43:44;;;;;;;42.50;15.75;;;;;;;4.08;100.00;100349.11;1659833;85;21633;-91
2022/02/03 07:46:10;;;;;;;41.98;13.43;;;;;;;4.16;100.00;100350.67;1653675;85;20998;-91
2022/02/03 07:48:43;;;;;;;38.90;13.95;;;;;;;4.24;100.00;100341.04;1632231;87;21158;-91
2022/02/03 07:51:11;;;;;;;41.90;15.10;;;;;;;4.30;100.00;100336.66;1652299;84;21602;-91
2022/02/03 07:53:49;;;;;;;35.03;12.53;;;;;;;4.37;100.00;100336.05;1647401;85;21318;-91
2022/02/03 07:56:15;;;;;;;40.28;14.87;;;;;;;4.52;100.00;100347.66;1623230;88;21093;-90
2022/02/03 07:58:42;;;;;;;35.13;13.08;;;;;;;4.64;100.00;100356.52;1625264;88;21080;-91
2022/02/03 08:01:08;;;;;;;36.08;12.73;;;;;;;4.75;100.00;100354.94;1625199;87;21133;-93
2022/02/03 08:03:40;;;;;;;34.90;12.98;;;;;;;4.87;100.00;100357.64;1625449;88;21522;-91
2022/02/03 08:06:08;;;;;;;30.92;11.63;;;;;;;4.92;100.00;100345.77;1621389;88;21101;-90
2022/02/03 08:08:40;;;;;;;32.55;12.47;;;;;;;4.93;100.00;100353.53;1624836;88;21105;-90
2022/02/03 08:11:08;;;;;;;31.42;11.40;;;;;;;4.95;100.00;100348.79;1621670;88;21165;-90
2022/02/03 08:13:38;;;;;;;33.90;12.58;;;;;;;5.09;100.00;100354.75;1647275;86;21093;-90
2022/02/03 08:16:11;;;;;;;27.48;11.83;;;;;;;5.14;100.00;100348.70;1649643;86;21082;-89
2022/02/03 08:18:33;;;;;;;36.88;15.08;;;;;;;5.10;100.00;100347.55;1671321;84;21072;-88
2022/02/03 08:21:04;;;;;;;40.75;14.78;;;;;;;5.05;100.00;100346.88;1680858;84;21039;-88
2022/02/03 08:26:14;;;;;;;29.42;11.53;;;;;;;4.93;100.00;100358.06;1662055;84;21200;-87
2022/02/03 08:31:25;;;;;;;27.87;10.28;;;;;;;4.93;100.00;100374.89;1669588;84;21146;-88
2022/02/03 08:33:52;;;;;;;24.10;9.88;;;;;;;4.98;100.00;100379.03;1664308;84;21483;-88
2022/02/03 08:36:19;;;;;;;29.05;11.00;;;;;;;5.06;100.00;100360.55;1647672;86;21073;-89
2022/02/03 08:38:48;;;;;;;21.33;8.88;;;;;;;5.03;100.00;100356.16;1663263;86;21088;-89
2022/02/03 08:41:14;;;;;;;23.25;9.20;;;;;;;5.06;100.00;100351.70;1668214;84;21028;-88
2022/02/03 08:43:46;;;;;;;24.15;9.80;;;;;;;5.10;100.00;100348.88;1676620;84;21136;-90
2022/02/03 08:46:13;;;;;;;21.80;8.63;;;;;;;5.11;100.00;100350.50;1663284;86;22184;-89
2022/02/03 08:48:40;;;;;;;24.23;9.55;;;;;;;5.17;100.00;100358.39;1667020;84;21072;-88
2022/02/03 08:51:08;;;;;;;20.72;8.90;;;;;;;5.21;100.00;100352.91;1699749;83;21029;-86
2022/02/03 08:53:39;;;;;;;23.27;9.23;;;;;;;5.23;100.00;100358.84;1718582;81;21622;-86
2022/02/03 08:56:30;;;;;;;24.77;9.33;;;;;;;5.27;100.00;100357.85;1720633;81;21109;-86
2022/02/03 10:03:13;;;;;;;20.27;7.85;;;;;;;5.30;100.00;100363.27;1495763;95;21072;-83
2022/02/03 10:05:40;;;;;;;19.55;8.48;;;;;;;5.30;100.00;100364.06;1471529;95;21089;-84
2022/02/03 10:08:08;;;;;;;19.32;7.97;;;;;;;5.41;100.00;100364.61;1480129;96;21076;-84
2022/02/03 10:10:34;;;;;;;21.68;9.18;;;;;;;5.48;100.00;100361.01;1427359;99;21150;-84
2022/02/03 10:13:01;;;;;;;22.50;9.15;;;;;;;5.55;100.00;100351.00;1436499;99;21152;-84
2022/02/03 10:15:29;;;;;;;20.65;8.60;;;;;;;5.57;100.00;100347.59;1433998;97;21200;-84
2022/02/03 10:17:57;;;;;;;24.95;9.93;;;;;;;5.58;100.00;100350.02;1417864;99;21162;-84
2022/02/03 10:20:27;;;;;;;28.32;10.70;;;;;;;5.58;100.00;100351.88;1416798;98;21170;-84
2022/02/03 10:23:04;;;;;;;25.30;10.20;;;;;;;5.51;100.00;100351.19;1428819;98;21189;-84
2022/02/03 10:28:07;;;;;;;26.90;10.48;;;;;;;5.48;100.00;100346.31;1436481;98;21730;-83
2022/02/03 10:33:14;;;;;;;25.75;10.68;;;;;;;5.37;100.00;100358.61;1445266;97;21252;-82
2022/02/03 11:05:46;;;;;;;28.55;11.25;;;;;;;5.51;100.00;100368.03;1408540;101;21181;-82
2022/02/03 11:08:08;;;;;;;26.17;9.90;;;;;;;5.44;100.00;100364.64;1404637;101;21127;-82
2022/02/03 11:10:31;;;;;;;22.17;9.40;;;;;;;5.49;100.00;100365.30;1398981;102;21230;-83
2022/02/03 11:12:57;;;;;;;25.68;10.45;;;;;;;5.53;100.00;100362.44;1398740;102;21170;-82
2022/02/03 11:15:26;;;;;;;27.58;9.35;;;;;;;5.56;100.00;100354.80;1398436;100;21183;-82
2022/02/03 11:17:56;;;;;;;30.17;10.38;;;;;;;5.49;100.00;100347.40;1358362;104;21261;-81
2022/02/03 11:20:26;;;;;;;30.85;10.45;;;;;;;5.41;100.00;100350.41;1358573;105;21241;-82
2022/02/03 11:23:08;;;;;;;30.10;10.08;;;;;;;5.33;100.00;100348.10;1303913;110;21267;-81
2022/02/03 11:33:39;;;;;;;27.00;10.35;;;;;;;5.22;100.00;100357.20;1305634;109;21229;-81
2022/02/03 11:45:15;;;;;;;42.10;14.55;;;;;;;5.48;100.00;100355.13;1385788;101;21178;-81
2022/02/03 11:50:58;;;;;;;47.08;15.48;;;;;;;5.45;100.00;100350.26;1393348;100;21181;-81
2022/02/03 11:59:04;;;;;;;51.05;16.25;;;;;;;5.43;100.00;100348.33;1333726;105;21155;-81
2022/02/03 12:01:27;;;;;;;55.35;17.57;;;;;;;5.44;100.00;100357.96;1336498;105;21187;-81
2022/02/03 12:12:40;;;;;;;62.17;18.40;;;;;;;5.57;100.00;100356.41;1332727;106;21197;-84
2022/02/03 12:18:10;;;;;;;54.23;17.87;;;;;;;5.63;100.00;100354.67;1321781;106;21226;-88
2022/02/03 12:20:51;;;;;;;51.30;17.23;;;;;;;5.63;100.00;100361.36;1326452;103;21191;-88
2022/02/03 12:29:11;;;;;;;65.62;18.90;;;;;;;5.78;100.00;100376.92;1324856;106;21727;-89
2022/02/03 12:44:49;;;;;;;56.05;17.62;;;;;;;5.28;100.00;100388.05;1386881;101;21670;-89
2022/02/03 12:47:15;;;;;;;66.40;18.42;;;;;;;5.25;100.00;100383.98;1379679;101;21238;-89
2022/02/03 12:49:41;;;;;;;61.28;17.90;;;;;;;5.23;100.00;100384.22;1371055;100;21171;-89
2022/02/03 12:52:27;;;;;;;63.00;19.27;;;;;;;5.24;100.00;100387.17;1387418;100;21806;-89
2022/02/03 12:54:55;;;;;;;70.72;20.00;;;;;;;5.23;100.00;100390.06;1403584;100;21141;-89
2022/02/03 12:57:34;;;;;;;59.05;19.62;;;;;;;5.19;100.00;100397.72;1395245;100;21121;-90
2022/02/03 13:00:14;;;;;;;60.43;20.17;;;;;;;5.18;100.00;100400.11;1406676;100;21147;-88
2022/02/03 13:02:41;;;;;;;72.58;21.15;;;;;;;5.18;100.00;100404.64;1400877;101;21217;-89
2022/02/03 13:05:10;;;;;;;74.00;21.02;;;;;;;5.08;100.00;100402.51;1408657;100;21783;-88
2022/02/03 13:07:36;;;;;;;72.95;21.73;;;;;;;4.93;100.00;100398.11;1407907;100;21331;-89
2022/02/03 13:10:11;;;;;;;64.72;20.08;;;;;;;4.84;100.00;100400.29;1413866;100;21162;-88
2022/02/03 13:12:46;;;;;;;68.00;20.80;;;;;;;4.76;100.00;100402.77;1400968;100;21159;-89
2022/02/03 13:15:07;;;;;;;70.87;20.02;;;;;;;4.72;100.00;100400.77;1405794;100;21138;-89
2022/02/03 13:17:38;;;;;;;72.12;21.33;;;;;;;4.63;100.00;100403.46;1402265;100;21157;-88
2022/02/03 13:20:17;;;;;;;71.75;20.65;;;;;;;4.51;100.00;100408.22;1397287;101;21210;-89
2022/02/03 13:22:50;;;;;;;72.00;20.40;;;;;;;4.40;100.00;100412.16;1355895;103;21176;-89
2022/02/03 13:25:34;;;;;;;73.45;19.98;;;;;;;4.33;100.00;100410.91;1371417;103;21284;-89
2022/02/03 13:28:14;;;;;;;62.05;19.37;;;;;;;4.23;100.00;100410.06;1406879;100;21571;-89
2022/02/03 13:30:49;;;;;;;71.00;19.30;;;;;;;4.08;100.00;100411.77;1401694;100;21690;-89
2022/02/03 13:33:40;;;;;;;;;;;;;;;;;;;;;
2022/02/03 13:36:06;;;;;;;72.65;19.52;;;;;;;3.97;100.00;100412.53;1364559;102;21180;-89
2022/02/03 13:38:44;;;;;;;77.62;21.48;;;;;;;3.89;100.00;100416.80;1379539;102;21227;-89
2022/02/03 13:41:15;;;;;;;76.92;21.35;;;;;;;3.80;100.00;100410.94;1387097;100;21219;-90
2022/02/03 13:43:42;;;;;;;;;;;;;;;3.67;100.00;100408.38;1383705;101;21221;-89
2022/02/03 13:46:09;;;;;;;80.97;22.27;;;;;;;3.51;100.00;100415.09;1363791;104;21163;-91
2022/02/03 13:48:39;;;;;;;87.85;23.98;;;;;;;3.43;100.00;100415.88;1350237;104;21175;-91
2022/02/03 13:51:11;;;;;;;76.15;21.05;;;;;;;3.33;100.00;100410.52;1384792;102;21250;-90
2022/02/03 13:53:43;;;;;;;86.50;22.07;;;;;;;3.31;100.00;100408.58;1370720;102;21352;-89
2022/02/03 14:10:51;;;;;;;;;;;;;;;3.11;100.00;100415.89;1490115;94;21081;-89
2022/02/03 14:21:02;;;;;;;90.07;25.08;;;;;;;3.03;100.00;100426.78;1352635;104;21684;-89
2022/02/03 14:26:51;;;;;;;85.45;24.32;;;;;;;3.02;100.00;100433.16;1355763;104;21157;-89
2022/02/03 14:28:39;;;;;;;97.70;25.00;;;;;;;2.99;100.00;100420.27;1355795;102;21793;-89
2022/02/03 14:31:08;;;;;;;97.72;24.47;;;;;;;3.00;100.00;100424.06;1359629;104;22530;-90
2022/02/03 14:33:38;;;;;;;96.40;26.02;;;;;;;2.99;100.00;100429.07;1384240;102;21683;-90
2022/02/03 14:36:08;;;;;;;94.77;24.37;;;;;;;2.98;100.00;100434.63;1381157;102;21208;-90
2022/02/03 14:38:54;;;;;;;107.40;27.25;;;;;;;2.96;100.00;100438.81;1381106;102;21322;-89
2022/02/03 14:41:24;;;;;;;104.17;26.33;;;;;;;2.99;100.00;100440.23;1399651;97;21244;-90
2022/02/03 14:43:47;;;;;;;98.90;27.07;;;;;;;2.97;100.00;100440.44;1457285;97;21104;-89
2022/02/03 14:46:15;;;;;;;102.53;26.93;;;;;;;2.95;100.00;100447.84;1455861;97;21117;-93
2022/02/03 14:48:43;;;;;;;99.83;27.58;;;;;;;2.90;100.00;100447.13;1454531;97;21159;-90
2022/02/03 14:51:14;;;;;;;100.50;25.95;;;;;;;2.81;100.00;100453.73;1453132;96;21144;-91
2022/02/03 14:59:09;;;;;;;98.92;26.05;;;;;;;2.64;100.00;100467.20;1474859;96;21625;-91
2022/02/03 15:01:38;;;;;;;91.95;23.40;;;;;;;2.61;100.00;100468.96;1476484;97;21579;-92
2022/02/03 15:14:17;;;;;;;86.55;22.77;;;;;;;2.42;100.00;100479.98;1557332;91;21157;-90
2022/02/03 15:16:43;;;;;;;86.60;22.55;;;;;;;2.40;100.00;100482.83;1562979;89;21140;-90
2022/02/03 15:19:09;;;;;;;88.20;23.67;;;;;;;2.44;100.00;100484.06;1578672;88;21051;-90
2022/02/03 15:21:40;;;;;;;92.08;23.22;;;;;;;2.49;100.00;100483.42;1585611;88;21680;-90
2022/02/03 15:24:08;;;;;;;94.47;22.70;;;;;;;2.50;100.00;100489.88;1552563;91;21053;-89
2022/02/03 15:26:34;;;;;;;89.35;22.93;;;;;;;2.50;100.00;100485.08;1569974;89;21622;-89
2022/02/03 15:29:00;;;;;;;93.82;24.32;;;;;;;2.50;100.00;100489.06;1545861;91;21153;-89
2022/02/03 15:31:30;;;;;;;90.00;21.75;;;;;;;2.49;100.00;100491.41;1541472;93;20972;-89
2022/02/03 15:33:58;;;;;;;86.50;23.67;;;;;;;2.47;100.00;100488.97;1541041;93;21396;-89
2022/02/03 15:36:23;;;;;;;91.12;22.58;;;;;;;2.43;100.00;100489.58;1541135;93;21158;-89
2022/02/03 15:38:49;;;;;;;99.40;23.85;;;;;;;2.42;100.00;100497.27;1540969;93;21037;-89
2022/02/03 15:43:49;;;;;;;106.95;26.02;;;;;;;2.37;100.00;100500.53;1473773;96;21191;-89
2022/02/03 15:46:17;;;;;;;108.52;27.00;;;;;;;2.39;100.00;100501.67;1473494;95;21102;-90
2022/02/03 15:56:08;;;;;;;86.47;22.27;;;;;;;2.40;100.00;100504.11;1430022;100;21226;-90
2022/02/03 16:20:22;;;;;;;95.05;21.75;;;;;;;2.27;100.00;100507.62;1508496;94;21789;-90
2022/02/03 16:22:54;;;;;;;84.00;23.15;;;;;;;2.28;100.00;100498.61;1487617;96;21140;-89
2022/02/03 16:54:54;;;;;;;76.07;20.23;;;;;;;2.00;100.00;100512.64;1561153;89;21253;-91
2022/02/03 16:57:24;;;;;;;74.82;19.75;;;;;;;1.99;100.00;100515.00;1580096;89;21063;-90
2022/02/03 16:59:57;;;;;;;75.15;24.25;;;;;;;1.97;100.00;100515.71;1580414;89;21554;-89
2022/02/03 17:02:16;;;;;;;65.30;18.92;;;;;;;1.96;100.00;100518.08;1579873;89;21040;-90
2022/02/03 17:04:43;;;;;;;71.30;20.30;;;;;;;1.95;100.00;100510.62;1581731;89;21786;-90
2022/02/03 17:07:10;;;;;;;66.47;20.12;;;;;;;1.97;100.00;100511.72;1585949;89;21032;-89
2022/02/03 17:09:38;;;;;;;65.80;19.15;;;;;;;1.93;100.00;100517.97;1574716;89;21108;-88
2022/02/03 17:12:05;;;;;;;62.10;19.30;;;;;;;1.92;100.00;100523.50;1581629;90;21619;-90
2022/02/03 17:14:31;;;;;;;64.70;19.98;;;;;;;1.86;100.00;100521.15;1582791;90;21032;-89
2022/02/03 17:16:58;;;;;;;56.95;17.57;;;;;;;1.83;100.00;100518.09;1610249;87;20870;-88
2022/02/03 17:19:24;;;;;;;57.27;17.40;;;;;;;1.78;100.00;100522.67;1638439;87;21454;-92
2022/02/03 17:21:50;;;;;;;59.67;18.30;;;;;;;1.78;100.00;100524.00;1713793;83;21033;-88
2022/02/03 17:24:17;;;;;;;53.15;18.05;;;;;;;1.80;100.00;100527.28;1731682;80;21928;-89
2022/02/03 17:32:00;;;;;;;58.95;17.45;;;;;;;1.84;100.00;100525.03;1631458;86;21741;-89
2022/02/03 17:52:28;;;;;;;44.30;15.10;;;;;;;1.90;100.00;100517.56;1641587;86;21062;-90
2022/02/03 18:09:23;;;;;;;47.65;15.53;;;;;;;2.00;100.00;100504.67;1585678;89;21732;-89
2022/02/03 18:17:20;;;;;;;56.85;18.17;;;;;;;1.99;100.00;100505.19;1544869;91;21175;-90
2022/02/03 18:30:29;;;;;;;57.20;16.97;;;;;;;2.01;100.00;100494.36;1658573;85;21172;-87
2022/02/03 18:35:52;;;;;;;53.63;18.15;;;;;;;2.03;100.00;100493.66;1668660;84;21566;-88
2022/02/03 18:51:09;;;;;;;67.67;20.97;;;;;;;2.01;100.00;100490.38;1607364;88;21553;-87
2022/02/03 18:53:39;;;;;;;64.12;20.23;;;;;;;2.00;100.00;100489.56;1605237;88;21148;-87
2022/02/03 18:58:48;;;;;;;74.50;22.98;;;;;;;2.01;100.00;100487.20;1668042;85;21640;-87
2022/02/03 19:13:10;;;;;;;70.50;20.85;;;;;;;2.03;100.00;100488.34;1745924;81;21015;-88
2022/02/03 19:23:22;;;;;;;58.87;18.30;;;;;;;2.00;100.00;100486.06;1748029;81;21587;-89
2022/02/03 20:03:35;;;;;;;56.90;18.55;;;;;;;1.77;100.00;100504.59;1735724;82;21153;-88
2022/02/03 20:08:14;;;;;;;68.20;20.20;;;;;;;1.80;100.00;100499.38;1740792;79;21094;-88
2022/02/03 20:10:39;;;;;;;63.75;19.77;;;;;;;1.75;100.00;100496.00;1796686;79;21512;-89
2022/02/03 20:13:04;;;;;;;62.35;19.12;;;;;;;1.73;100.00;100495.38;1797147;79;21106;-88
2022/02/03 20:15:33;;;;;;;59.77;19.45;;;;;;;1.72;100.00;100498.25;1802276;79;21986;-88
2022/02/03 20:17:59;;;;;;;63.02;21.23;;;;;;;1.69;100.00;100502.64;1801724;79;21058;-89
2022/02/03 20:20:26;;;;;;;70.75;21.42;;;;;;;1.66;100.00;100501.20;1802438;79;21020;-88
2022/02/03 20:22:52;;;;;;;71.17;21.93;;;;;;;1.65;100.00;100497.41;1802285;79;21042;-88
2022/02/03 20:25:18;;;;;;;63.42;20.32;;;;;;;1.68;100.00;100495.71;1802197;79;20975;-88
2022/02/03 20:27:44;;;;;;;67.35;20.82;;;;;;;1.71;100.00;100496.11;1802301;78;21095;-88
2022/02/03 20:30:12;;;;;;;71.35;21.48;;;;;;;1.73;100.00;100495.89;1802171;79;20961;-88
2022/02/03 20:32:38;;;;;;;70.37;21.02;;;;;;;1.73;100.00;100496.70;1716448;83;21050;-88
2022/02/03 20:35:06;;;;;;;74.72;21.20;;;;;;;1.72;100.00;100497.73;1716976;83;21008;-88
2022/02/03 20:37:32;;;;;;;64.95;21.57;;;;;;;1.72;100.00;100499.58;1716933;83;21022;-89
2022/02/03 20:39:58;;;;;;;68.95;22.07;;;;;;;1.71;100.00;100501.42;1711486;83;21689;-88
2022/02/03 20:42:24;;;;;;;65.92;22.00;;;;;;;1.70;100.00;100504.27;1716980;83;21133;-88
2022/02/03 20:44:51;;;;;;;70.90;21.87;;;;;;;1.69;100.00;100505.30;1717151;83;20915;-88
2022/02/03 20:47:18;;;;;;;68.62;21.17;;;;;;;1.68;100.00;100515.11;1716906;83;21094;-88
2022/02/03 20:49:44;;;;;;;70.62;21.95;;;;;;;1.69;100.00;100518.06;1716404;83;21178;-88
2022/02/03 20:52:10;;;;;;;64.92;21.40;;;;;;;1.72;100.00;100512.86;1717005;83;21713;-88
2022/02/03 20:54:37;;;;;;;69.82;22.60;;;;;;;1.72;100.00;100513.67;1716666;83;21003;-88
2022/02/03 20:57:03;;;;;;;65.97;21.80;;;;;;;1.69;100.00;100517.25;1706165;83;21072;-88
2022/02/03 20:59:44;;;;;;;66.05;21.82;;;;;;;1.69;100.00;100520.72;1704117;84;20962;-88
2022/02/03 21:02:01;;;;;;;73.65;22.75;;;;;;;1.71;100.00;100518.69;1698123;84;21051;-88
2022/02/03 21:07:09;;;;;;;69.12;23.45;;;;;;;1.73;100.00;100513.97;1683285;84;21086;-88
2022/02/03 21:09:36;;;;;;;72.92;21.48;;;;;;;1.74;100.00;100516.95;1680452;84;21056;-89
2022/02/03 21:12:03;;;;;;;79.15;25.20;;;;;;;1.77;100.00;100517.06;1703653;84;21012;-89
2022/02/03 21:14:29;;;;;;;75.60;22.30;;;;;;;1.73;100.00;100513.16;1704144;84;21576;-88
2022/02/03 21:16:55;;;;;;;81.82;24.52;;;;;;;1.72;100.00;100514.19;1703979;84;21163;-88
2022/02/03 21:19:22;;;;;;;82.35;22.27;;;;;;;1.74;100.00;100508.98;1704354;84;21626;-88
2022/02/03 21:21:48;;;;;;;76.95;22.25;;;;;;;1.75;100.00;100511.13;1703436;84;21045;-90
2022/02/03 21:24:14;;;;;;;78.95;25.12;;;;;;;1.75;100.00;100513.27;1704260;84;20865;-88
2022/02/03 21:26:41;;;;;;;80.42;24.67;;;;;;;1.74;100.00;100516.95;1704565;84;20905;-88
2022/02/03 21:29:07;;;;;;;84.77;25.15;;;;;;;1.75;100.00;100507.95;1735860;79;21018;-88
2022/02/03 21:31:33;;;;;;;90.45;26.12;;;;;;;1.79;100.00;100508.36;1807646;79;21047;-88
2022/02/03 21:33:59;;;;;;;86.60;24.60;;;;;;;1.78;100.00;100516.84;1807527;79;20952;-88
2022/02/03 21:36:33;;;;;;;81.02;24.80;;;;;;;1.78;100.00;100516.03;1807671;79;20904;-88
2022/02/03 21:38:53;;;;;;;84.62;24.87;;;;;;;1.75;100.00;100514.59;1807203;79;21035;-87
2022/02/03 21:41:19;;;;;;;87.22;26.10;;;;;;;1.75;100.00;100515.92;1807936;79;21088;-88
2022/02/03 21:43:48;;;;;;;99.75;27.45;;;;;;;1.75;100.00;100523.89;1808027;79;21594;-87
2022/02/03 21:46:14;;;;;;;92.33;25.65;;;;;;;1.72;100.00;100520.83;1807112;79;20977;-89
2022/02/03 21:48:47;;;;;;;99.55;28.77;;;;;;;1.67;100.00;100524.08;1807794;79;21003;-90
2022/02/03 21:51:09;;;;;;;89.35;26.37;;;;;;;1.65;100.00;100519.98;1802893;79;20996;-89
2022/02/03 21:53:36;;;;;;;95.38;26.27;;;;;;;1.61;100.00;100518.25;1804861;79;21971;-88
2022/02/03 21:56:03;;;;;;;105.00;26.68;;;;;;;1.61;100.00;100524.08;1805402;79;21449;-88
2022/02/03 21:58:29;;;;;;;100.10;26.75;;;;;;;1.58;100.00;100522.64;1799951;79;21371;-88
2022/02/03 22:00:57;;;;;;;98.75;26.25;;;;;;;1.58;100.00;100522.64;1799786;79;20967;-88
2022/02/03 22:03:26;;;;;;;103.83;27.73;;;;;;;1.61;100.00;100526.73;1799591;79;21028;-88
2022/02/03 22:05:52;;;;;;;110.83;27.30;;;;;;;1.64;100.00;100522.34;1799337;78;21524;-89
2022/02/03 22:08:18;;;;;;;116.12;26.12;;;;;;;1.63;100.00;100522.05;1800881;78;21074;-89
2022/02/03 22:10:44;;;;;;;107.87;27.73;;;;;;;1.61;100.00;100520.10;1806168;78;20995;-88